EJA823 KBED-KFXE
Flight info
| Callsign | EJA823 |
|---|---|
| Flight time | 2h 58m |
| Altitude | 43000 |
| Route | REVSS NELIE BIZEX Q75 GSO Q83 JEVED Q97 KENLL CPTAN3 |
| Aircraft | C700/M-SBDGHM1RWXY/LB2 |
Departure
| Time | 2026-04-19 20:51 |
|---|---|
| Airport | Laurence G Hanscom Field (KBED) |
Arrival
| Time | 2026-04-19 23:50 |
|---|---|
| Airport | Fort Lauderdale Executive Airport (KFXE) |
| Time | Latitude | Longitude | Altitude | Speed | Heading |
|---|---|---|---|---|---|
| 2026-04-19 20:28 | 42.46355 | -71.29048 | 131 ft | 0 kts | 168° |
| 2026-04-19 20:46 | 42.46353 | -71.29041 | 131 ft | 1 kts | 107° |
| 2026-04-19 20:47 | 42.46367 | -71.29045 | 131 ft | 4 kts | 308° |
| 2026-04-19 20:47 | 42.46389 | -71.29098 | 132 ft | 6 kts | 276° |
| 2026-04-19 20:47 | 42.46395 | -71.29160 | 133 ft | 7 kts | 286° |
| 2026-04-19 20:47 | 42.46433 | -71.29211 | 133 ft | 10 kts | 341° |
| 2026-04-19 20:48 | 42.46513 | -71.29154 | 133 ft | 17 kts | 38° |
| 2026-04-19 20:48 | 42.46617 | -71.29048 | 135 ft | 21 kts | 37° |
| 2026-04-19 20:48 | 42.46724 | -71.28939 | 133 ft | 19 kts | 36° |
| 2026-04-19 20:48 | 42.46828 | -71.28826 | 133 ft | 20 kts | 49° |
| 2026-04-19 20:49 | 42.46836 | -71.28634 | 132 ft | 22 kts | 98° |
| 2026-04-19 20:49 | 42.46815 | -71.28416 | 127 ft | 25 kts | 96° |
| 2026-04-19 20:49 | 42.46798 | -71.28171 | 128 ft | 27 kts | 96° |
| 2026-04-19 20:49 | 42.46767 | -71.27902 | 125 ft | 30 kts | 98° |
| 2026-04-19 20:50 | 42.46749 | -71.27716 | 126 ft | 15 kts | 97° |
| 2026-04-19 20:50 | 42.46797 | -71.27601 | 124 ft | 16 kts | 17° |
| 2026-04-19 20:50 | 42.46907 | -71.27580 | 125 ft | 16 kts | 9° |
| 2026-04-19 20:50 | 42.46959 | -71.27595 | 125 ft | 6 kts | 269° |
| 2026-04-19 20:51 | 42.46980 | -71.27827 | 127 ft | 60 kts | 278° |
| 2026-04-19 20:51 | 42.47059 | -71.28755 | 140 ft | 136 kts | 276° |
| 2026-04-19 20:51 | 42.47166 | -71.30173 | 735 ft | 160 kts | 280° |
| 2026-04-19 20:51 | 42.47348 | -71.31736 | 1663 ft | 177 kts | 287° |
| 2026-04-19 20:52 | 42.47572 | -71.33336 | 1976 ft | 176 kts | 290° |
| 2026-04-19 20:52 | 42.47833 | -71.34949 | 1995 ft | 175 kts | 290° |
| 2026-04-19 20:52 | 42.48111 | -71.36550 | 1997 ft | 174 kts | 291° |
| 2026-04-19 20:52 | 42.48063 | -71.38226 | 1946 ft | 193 kts | 261° |
| 2026-04-19 20:53 | 42.47511 | -71.39936 | 2663 ft | 195 kts | 256° |
| 2026-04-19 20:53 | 42.46991 | -71.41607 | 3950 ft | 192 kts | 255° |
| 2026-04-19 20:53 | 42.46474 | -71.43280 | 5205 ft | 193 kts | 251° |
| 2026-04-19 20:53 | 42.45950 | -71.44947 | 6508 ft | 191 kts | 249° |
| 2026-04-19 20:54 | 42.45433 | -71.46595 | 7776 ft | 192 kts | 246° |
| 2026-04-19 20:54 | 42.44873 | -71.48377 | 8673 ft | 219 kts | 245° |
| 2026-04-19 20:54 | 42.44241 | -71.50389 | 9652 ft | 243 kts | 243° |
| 2026-04-19 20:54 | 42.43570 | -71.52529 | 10881 ft | 257 kts | 243° |
| 2026-04-19 20:55 | 42.42850 | -71.54819 | 12146 ft | 265 kts | 243° |
| 2026-04-19 20:55 | 42.42131 | -71.57124 | 13768 ft | 273 kts | 242° |
| 2026-04-19 20:55 | 42.41329 | -71.59645 | 14031 ft | 310 kts | 242° |
| 2026-04-19 20:55 | 42.40448 | -71.62413 | 14044 ft | 327 kts | 242° |
| 2026-04-19 20:56 | 42.39551 | -71.65276 | 14043 ft | 333 kts | 242° |
| 2026-04-19 20:56 | 42.38646 | -71.68155 | 14376 ft | 327 kts | 242° |
| 2026-04-19 20:56 | 42.37787 | -71.70869 | 16398 ft | 299 kts | 241° |
| 2026-04-19 20:56 | 42.37013 | -71.73351 | 18594 ft | 281 kts | 240° |
| 2026-04-19 20:57 | 42.36225 | -71.75816 | 19630 ft | 290 kts | 240° |
| 2026-04-19 20:57 | 42.35415 | -71.78326 | 20676 ft | 293 kts | 240° |
| 2026-04-19 20:57 | 42.34577 | -71.80857 | 21688 ft | 296 kts | 238° |
| 2026-04-19 20:57 | 42.33546 | -71.83269 | 22714 ft | 297 kts | 233° |
| 2026-04-19 20:58 | 42.32451 | -71.85659 | 23681 ft | 302 kts | 234° |
| 2026-04-19 20:58 | 42.31351 | -71.88092 | 24544 ft | 305 kts | 234° |
| 2026-04-19 20:58 | 42.30238 | -71.90551 | 25358 ft | 309 kts | 234° |
| 2026-04-19 20:58 | 42.29114 | -71.93016 | 26404 ft | 306 kts | 234° |
| 2026-04-19 20:59 | 42.27992 | -71.95474 | 27237 ft | 309 kts | 234° |
| 2026-04-19 20:59 | 42.26855 | -71.97964 | 28010 ft | 313 kts | 234° |
| 2026-04-19 20:59 | 42.25707 | -72.00478 | 28788 ft | 316 kts | 234° |
| 2026-04-19 20:59 | 42.24565 | -72.02981 | 29550 ft | 320 kts | 234° |
| 2026-04-19 21:00 | 42.23390 | -72.05550 | 30301 ft | 322 kts | 234° |
| 2026-04-19 21:00 | 42.22212 | -72.08126 | 30993 ft | 324 kts | 234° |
| 2026-04-19 21:00 | 42.21022 | -72.10720 | 31618 ft | 326 kts | 235° |
| 2026-04-19 21:00 | 42.19825 | -72.13331 | 32256 ft | 328 kts | 235° |
| 2026-04-19 21:01 | 42.18620 | -72.15958 | 32896 ft | 330 kts | 235° |
| 2026-04-19 21:01 | 42.17407 | -72.18598 | 33530 ft | 332 kts | 235° |
| 2026-04-19 21:01 | 42.16190 | -72.21247 | 34075 ft | 334 kts | 235° |
| 2026-04-19 21:01 | 42.14960 | -72.23919 | 34494 ft | 338 kts | 235° |
| 2026-04-19 21:02 | 42.13715 | -72.26624 | 34981 ft | 341 kts | 234° |
| 2026-04-19 21:02 | 42.12457 | -72.29351 | 35379 ft | 345 kts | 234° |
| 2026-04-19 21:02 | 42.11186 | -72.32104 | 35806 ft | 347 kts | 234° |
| 2026-04-19 21:02 | 42.09911 | -72.34866 | 36211 ft | 348 kts | 234° |
| 2026-04-19 21:03 | 42.08629 | -72.37641 | 36635 ft | 350 kts | 234° |
| 2026-04-19 21:03 | 42.07342 | -72.40423 | 37022 ft | 351 kts | 234° |
| 2026-04-19 21:03 | 42.06047 | -72.43217 | 37391 ft | 352 kts | 235° |
| 2026-04-19 21:03 | 42.04757 | -72.46001 | 37870 ft | 350 kts | 235° |
| 2026-04-19 21:04 | 42.03465 | -72.48786 | 38187 ft | 352 kts | 235° |
| 2026-04-19 21:04 | 42.02166 | -72.51580 | 38513 ft | 353 kts | 235° |
| 2026-04-19 21:04 | 42.00865 | -72.54381 | 38774 ft | 354 kts | 235° |
| 2026-04-19 21:04 | 41.99559 | -72.57188 | 38995 ft | 355 kts | 235° |
| 2026-04-19 21:05 | 41.98248 | -72.60006 | 39197 ft | 356 kts | 235° |
| 2026-04-19 21:05 | 41.96920 | -72.62853 | 39290 ft | 363 kts | 234° |
| 2026-04-19 21:05 | 41.94102 | -72.68554 | 39633 ft | 366 kts | 230° |
| 2026-04-19 21:06 | 41.92451 | -72.71158 | 39855 ft | 366 kts | 226° |
| 2026-04-19 21:06 | 41.90668 | -72.73602 | 40054 ft | 366 kts | 225° |
| 2026-04-19 21:06 | 41.88895 | -72.76039 | 40415 ft | 364 kts | 226° |
| 2026-04-19 21:06 | 41.87132 | -72.78482 | 40586 ft | 365 kts | 226° |
| 2026-04-19 21:07 | 41.85356 | -72.80927 | 40782 ft | 367 kts | 226° |
| 2026-04-19 21:07 | 41.83567 | -72.83373 | 40974 ft | 368 kts | 226° |
| 2026-04-19 21:07 | 41.81777 | -72.85825 | 41163 ft | 369 kts | 226° |
| 2026-04-19 21:07 | 41.79982 | -72.88289 | 41361 ft | 370 kts | 226° |
| 2026-04-19 21:08 | 41.78181 | -72.90756 | 41539 ft | 371 kts | 226° |
| 2026-04-19 21:08 | 41.76375 | -72.93226 | 41718 ft | 372 kts | 226° |
| 2026-04-19 21:08 | 41.74562 | -72.95704 | 41923 ft | 374 kts | 226° |
| 2026-04-19 21:08 | 41.72727 | -72.98210 | 41895 ft | 380 kts | 226° |
| 2026-04-19 21:09 | 41.70867 | -73.00746 | 42002 ft | 383 kts | 226° |
| 2026-04-19 21:09 | 41.69003 | -73.03288 | 42202 ft | 383 kts | 226° |
| 2026-04-19 21:09 | 41.67132 | -73.05839 | 42385 ft | 384 kts | 226° |
| 2026-04-19 21:09 | 41.65286 | -73.08351 | 42564 ft | 385 kts | 226° |
| 2026-04-19 21:10 | 41.63376 | -73.10946 | 42746 ft | 386 kts | 226° |
| 2026-04-19 21:10 | 41.61491 | -73.13508 | 42925 ft | 387 kts | 226° |
| 2026-04-19 21:10 | 41.57707 | -73.18643 | 42991 ft | 395 kts | 226° |
| 2026-04-19 21:11 | 41.53806 | -73.23926 | 43006 ft | 403 kts | 226° |
| 2026-04-19 21:11 | 41.49827 | -73.29307 | 43009 ft | 412 kts | 226° |
| 2026-04-19 21:12 | 41.45769 | -73.34817 | 43000 ft | 419 kts | 226° |
| 2026-04-19 21:12 | 41.41670 | -73.40288 | 43000 ft | 415 kts | 226° |
| 2026-04-19 21:13 | 41.37644 | -73.45720 | 42991 ft | 410 kts | 226° |
| 2026-04-19 21:13 | 41.33613 | -73.51121 | 42993 ft | 413 kts | 226° |
| 2026-04-19 21:14 | 41.29546 | -73.56570 | 42996 ft | 417 kts | 226° |
| 2026-04-19 21:14 | 41.25795 | -73.62429 | 43005 ft | 415 kts | 231° |
| 2026-04-19 21:15 | 41.22157 | -73.68379 | 42989 ft | 414 kts | 231° |
| 2026-04-19 21:15 | 41.18551 | -73.74322 | 42976 ft | 413 kts | 231° |
| 2026-04-19 21:16 | 41.14923 | -73.80263 | 42977 ft | 416 kts | 231° |
| 2026-04-19 21:16 | 41.11917 | -73.85323 | 42983 ft | 418 kts | 232° |
| 2026-04-19 21:17 | 41.08321 | -73.91396 | 42979 ft | 418 kts | 232° |
| 2026-04-19 21:17 | 41.04721 | -73.97409 | 42986 ft | 414 kts | 232° |
| 2026-04-19 21:18 | 41.01159 | -74.03383 | 43004 ft | 412 kts | 232° |
| 2026-04-19 21:18 | 40.97616 | -74.09292 | 43009 ft | 414 kts | 232° |
| 2026-04-19 21:19 | 40.94032 | -74.15271 | 43015 ft | 416 kts | 232° |
| 2026-04-19 21:19 | 40.90422 | -74.21275 | 43012 ft | 418 kts | 232° |
| 2026-04-19 21:20 | 40.86813 | -74.27266 | 43011 ft | 415 kts | 232° |
| 2026-04-19 21:20 | 40.83229 | -74.33209 | 43009 ft | 412 kts | 232° |
| 2026-04-19 21:21 | 40.79644 | -74.39137 | 43018 ft | 416 kts | 232° |
| 2026-04-19 21:21 | 40.76010 | -74.45138 | 43031 ft | 420 kts | 232° |
| 2026-04-19 21:22 | 40.72370 | -74.51136 | 42966 ft | 418 kts | 232° |
| 2026-04-19 21:22 | 40.68755 | -74.57081 | 42991 ft | 414 kts | 232° |
| 2026-04-19 21:23 | 40.65162 | -74.62981 | 42990 ft | 413 kts | 232° |
| 2026-04-19 21:23 | 40.61557 | -74.68887 | 42991 ft | 415 kts | 232° |
| 2026-04-19 21:24 | 40.57905 | -74.74782 | 42979 ft | 417 kts | 230° |
| 2026-04-19 21:24 | 40.53946 | -74.80362 | 43001 ft | 416 kts | 229° |
| 2026-04-19 21:25 | 40.50034 | -74.85922 | 42999 ft | 412 kts | 229° |
| 2026-04-19 21:25 | 40.46140 | -74.91402 | 43007 ft | 410 kts | 229° |
| 2026-04-19 21:26 | 40.42240 | -74.96907 | 43010 ft | 414 kts | 229° |
| 2026-04-19 21:26 | 40.38297 | -75.02449 | 43004 ft | 416 kts | 229° |
| 2026-04-19 21:27 | 40.34391 | -75.07936 | 43001 ft | 414 kts | 229° |
| 2026-04-19 21:27 | 40.30446 | -75.13468 | 43001 ft | 417 kts | 229° |
| 2026-04-19 21:28 | 40.26464 | -75.19039 | 43006 ft | 419 kts | 229° |
| 2026-04-19 21:28 | 40.22495 | -75.24580 | 43017 ft | 416 kts | 229° |
| 2026-04-19 21:29 | 40.18552 | -75.30078 | 42997 ft | 413 kts | 229° |
| 2026-04-19 21:29 | 40.14638 | -75.35524 | 43018 ft | 410 kts | 229° |
| 2026-04-19 21:30 | 40.10712 | -75.40980 | 43019 ft | 414 kts | 229° |
| 2026-04-19 21:30 | 40.06745 | -75.46478 | 43039 ft | 418 kts | 229° |
| 2026-04-19 21:31 | 40.02750 | -75.52010 | 43040 ft | 418 kts | 229° |
| 2026-04-19 21:31 | 39.98776 | -75.57498 | 43036 ft | 414 kts | 229° |
| 2026-04-19 21:32 | 39.94839 | -75.62929 | 43025 ft | 411 kts | 229° |
| 2026-04-19 21:32 | 39.90984 | -75.68415 | 43044 ft | 410 kts | 233° |
| 2026-04-19 21:33 | 39.87407 | -75.74165 | 43028 ft | 413 kts | 232° |
| 2026-04-19 21:33 | 39.83763 | -75.79970 | 43029 ft | 416 kts | 233° |
| 2026-04-19 21:34 | 39.80090 | -75.85846 | 43035 ft | 419 kts | 233° |
| 2026-04-19 21:34 | 39.76414 | -75.91689 | 43031 ft | 416 kts | 233° |
| 2026-04-19 21:35 | 39.72773 | -75.97483 | 43030 ft | 413 kts | 233° |
| 2026-04-19 21:35 | 39.69128 | -76.03265 | 43031 ft | 415 kts | 233° |
| 2026-04-19 21:36 | 39.65456 | -76.09082 | 43040 ft | 418 kts | 233° |
| 2026-04-19 21:36 | 39.61768 | -76.14910 | 43077 ft | 416 kts | 233° |
| 2026-04-19 21:37 | 39.58097 | -76.20661 | 43041 ft | 412 kts | 232° |
| 2026-04-19 21:37 | 39.54378 | -76.26333 | 43045 ft | 413 kts | 232° |
| 2026-04-19 21:38 | 39.50674 | -76.32050 | 43045 ft | 416 kts | 232° |
| 2026-04-19 21:38 | 39.46931 | -76.37776 | 43046 ft | 418 kts | 232° |
| 2026-04-19 21:39 | 39.42886 | -76.43171 | 43057 ft | 416 kts | 229° |
| 2026-04-19 21:39 | 39.38873 | -76.48462 | 43051 ft | 413 kts | 229° |
| 2026-04-19 21:40 | 39.32799 | -76.56380 | 43066 ft | 414 kts | 229° |
| 2026-04-19 21:41 | 39.28736 | -76.61683 | 43049 ft | 416 kts | 229° |
| 2026-04-19 21:41 | 39.24651 | -76.66993 | 43046 ft | 417 kts | 229° |
| 2026-04-19 21:42 | 39.20575 | -76.72290 | 43036 ft | 415 kts | 229° |
| 2026-04-19 21:42 | 39.16508 | -76.77560 | 43074 ft | 414 kts | 229° |
| 2026-04-19 21:43 | 39.12455 | -76.82807 | 43072 ft | 412 kts | 229° |
| 2026-04-19 21:43 | 39.08409 | -76.88036 | 43082 ft | 414 kts | 228° |
| 2026-04-19 21:44 | 39.04321 | -76.93308 | 43082 ft | 418 kts | 229° |
| 2026-04-19 21:44 | 39.00217 | -76.98593 | 43078 ft | 417 kts | 229° |
| 2026-04-19 21:45 | 38.96126 | -77.03859 | 43074 ft | 416 kts | 229° |
| 2026-04-19 21:45 | 38.92049 | -77.09103 | 43053 ft | 414 kts | 229° |
| 2026-04-19 21:46 | 38.87988 | -77.14315 | 43054 ft | 412 kts | 229° |
| 2026-04-19 21:46 | 38.83934 | -77.19511 | 43059 ft | 412 kts | 229° |
| 2026-04-19 21:47 | 38.79872 | -77.24708 | 43036 ft | 413 kts | 229° |
| 2026-04-19 21:47 | 38.75779 | -77.29936 | 43041 ft | 418 kts | 229° |
| 2026-04-19 21:48 | 38.71583 | -77.35113 | 43065 ft | 419 kts | 226° |
| 2026-04-19 21:48 | 38.67265 | -77.40097 | 43066 ft | 417 kts | 226° |
| 2026-04-19 21:49 | 38.62988 | -77.45047 | 43071 ft | 414 kts | 226° |
| 2026-04-19 21:49 | 38.58718 | -77.49964 | 43076 ft | 413 kts | 226° |
| 2026-04-19 21:50 | 38.54478 | -77.54850 | 43074 ft | 414 kts | 226° |
| 2026-04-19 21:50 | 38.50196 | -77.59769 | 43105 ft | 414 kts | 226° |
| 2026-04-19 21:51 | 38.45892 | -77.64710 | 43064 ft | 417 kts | 226° |
| 2026-04-19 21:51 | 38.41583 | -77.69644 | 43078 ft | 415 kts | 226° |
| 2026-04-19 21:52 | 38.37287 | -77.74557 | 43075 ft | 414 kts | 226° |
| 2026-04-19 21:52 | 38.33005 | -77.79446 | 43070 ft | 413 kts | 226° |
| 2026-04-19 21:53 | 38.28731 | -77.84317 | 43072 ft | 412 kts | 226° |
| 2026-04-19 21:53 | 38.24465 | -77.89170 | 43082 ft | 411 kts | 226° |
| 2026-04-19 21:54 | 38.20200 | -77.94017 | 43073 ft | 412 kts | 226° |
| 2026-04-19 21:54 | 38.15919 | -77.98872 | 43086 ft | 414 kts | 226° |
| 2026-04-19 21:55 | 38.11610 | -78.03753 | 43071 ft | 416 kts | 226° |
| 2026-04-19 21:55 | 38.07274 | -78.08653 | 43069 ft | 418 kts | 226° |
| 2026-04-19 21:56 | 38.02948 | -78.13533 | 43068 ft | 414 kts | 226° |
| 2026-04-19 21:56 | 37.98457 | -78.18086 | 43065 ft | 413 kts | 222° |
| 2026-04-19 21:57 | 37.93874 | -78.22492 | 43060 ft | 414 kts | 223° |
| 2026-04-19 21:57 | 37.89260 | -78.26888 | 43051 ft | 416 kts | 222° |
| 2026-04-19 21:58 | 37.84630 | -78.31303 | 43050 ft | 417 kts | 222° |
| 2026-04-19 21:58 | 37.79987 | -78.35721 | 43049 ft | 418 kts | 222° |
| 2026-04-19 21:59 | 37.75332 | -78.40141 | 43053 ft | 418 kts | 222° |
| 2026-04-19 21:59 | 37.70730 | -78.44506 | 43050 ft | 416 kts | 222° |
| 2026-04-19 22:00 | 37.66113 | -78.48878 | 43071 ft | 414 kts | 222° |
| 2026-04-19 22:00 | 37.61518 | -78.53222 | 43067 ft | 411 kts | 222° |
| 2026-04-19 22:01 | 37.56954 | -78.57531 | 43058 ft | 410 kts | 222° |
| 2026-04-19 22:01 | 37.52357 | -78.61865 | 43057 ft | 415 kts | 222° |
| 2026-04-19 22:02 | 37.47723 | -78.66224 | 43056 ft | 416 kts | 222° |
| 2026-04-19 22:02 | 37.43102 | -78.70564 | 43069 ft | 414 kts | 222° |
| 2026-04-19 22:03 | 37.38499 | -78.74882 | 43062 ft | 411 kts | 222° |
| 2026-04-19 22:03 | 37.33920 | -78.79171 | 43062 ft | 410 kts | 222° |
| 2026-04-19 22:04 | 37.29322 | -78.83473 | 43063 ft | 414 kts | 222° |
| 2026-04-19 22:04 | 37.24679 | -78.87806 | 43057 ft | 416 kts | 222° |
| 2026-04-19 22:05 | 37.20048 | -78.92121 | 43055 ft | 413 kts | 222° |
| 2026-04-19 22:05 | 37.16233 | -78.95672 | 43055 ft | 409 kts | 222° |
| 2026-04-19 22:06 | 37.11668 | -78.99917 | 43062 ft | 409 kts | 222° |
| 2026-04-19 22:06 | 37.07084 | -79.04173 | 43061 ft | 411 kts | 222° |
| 2026-04-19 22:07 | 37.02475 | -79.08444 | 43069 ft | 414 kts | 222° |
| 2026-04-19 22:07 | 36.97835 | -79.12738 | 43071 ft | 416 kts | 222° |
| 2026-04-19 22:08 | 36.93197 | -79.17020 | 43063 ft | 412 kts | 222° |
| 2026-04-19 22:08 | 36.88599 | -79.21263 | 43067 ft | 409 kts | 222° |
| 2026-04-19 22:09 | 36.84007 | -79.25495 | 43076 ft | 412 kts | 222° |
| 2026-04-19 22:09 | 36.79375 | -79.29754 | 43086 ft | 415 kts | 222° |
| 2026-04-19 22:10 | 36.74725 | -79.34022 | 43064 ft | 413 kts | 222° |
| 2026-04-19 22:10 | 36.70132 | -79.38233 | 43097 ft | 408 kts | 222° |
| 2026-04-19 22:11 | 36.65565 | -79.42416 | 43100 ft | 408 kts | 222° |
| 2026-04-19 22:11 | 36.60952 | -79.46633 | 43109 ft | 415 kts | 222° |
| 2026-04-19 22:12 | 36.56279 | -79.50897 | 43107 ft | 416 kts | 222° |
| 2026-04-19 22:12 | 36.51633 | -79.55128 | 43075 ft | 411 kts | 222° |
| 2026-04-19 22:13 | 36.47067 | -79.59284 | 43070 ft | 410 kts | 222° |
| 2026-04-19 22:13 | 36.42447 | -79.63484 | 43069 ft | 413 kts | 222° |
| 2026-04-19 22:14 | 36.37784 | -79.67713 | 43074 ft | 415 kts | 221° |
| 2026-04-19 22:14 | 36.33132 | -79.71925 | 43104 ft | 412 kts | 222° |
| 2026-04-19 22:15 | 36.28541 | -79.76075 | 43101 ft | 404 kts | 221° |
| 2026-04-19 22:15 | 36.24018 | -79.80162 | 43107 ft | 404 kts | 221° |
| 2026-04-19 22:16 | 36.19440 | -79.84294 | 43115 ft | 411 kts | 221° |
| 2026-04-19 22:16 | 36.14799 | -79.88468 | 43113 ft | 411 kts | 221° |
| 2026-04-19 22:17 | 36.10197 | -79.92604 | 43105 ft | 407 kts | 221° |
| 2026-04-19 22:17 | 36.05588 | -79.96638 | 43090 ft | 408 kts | 217° |
| 2026-04-19 22:18 | 36.00394 | -79.99731 | 43103 ft | 421 kts | 208° |
| 2026-04-19 22:18 | 35.94981 | -80.02399 | 43110 ft | 421 kts | 209° |
| 2026-04-19 22:19 | 35.89565 | -80.05082 | 43099 ft | 418 kts | 209° |
| 2026-04-19 22:19 | 35.84150 | -80.07750 | 43110 ft | 415 kts | 209° |
| 2026-04-19 22:20 | 35.78810 | -80.10388 | 43123 ft | 419 kts | 208° |
| 2026-04-19 22:20 | 35.73359 | -80.13067 | 43128 ft | 422 kts | 208° |
| 2026-04-19 22:21 | 35.67929 | -80.15733 | 43119 ft | 418 kts | 208° |
| 2026-04-19 22:21 | 35.62517 | -80.18390 | 43123 ft | 419 kts | 209° |
| 2026-04-19 22:22 | 35.57056 | -80.21069 | 43150 ft | 426 kts | 209° |
| 2026-04-19 22:22 | 35.51558 | -80.23752 | 43158 ft | 423 kts | 209° |
| 2026-04-19 22:23 | 35.46114 | -80.26414 | 43152 ft | 419 kts | 209° |
| 2026-04-19 22:23 | 35.40682 | -80.29027 | 43144 ft | 423 kts | 206° |
| 2026-04-19 22:24 | 35.34844 | -80.30627 | 43145 ft | 435 kts | 197° |
| 2026-04-19 22:24 | 35.28878 | -80.31756 | 43153 ft | 438 kts | 197° |
| 2026-04-19 22:25 | 35.22872 | -80.32898 | 43140 ft | 436 kts | 197° |
| 2026-04-19 22:25 | 35.16904 | -80.34024 | 43125 ft | 433 kts | 197° |
| 2026-04-19 22:26 | 35.10966 | -80.35151 | 43092 ft | 432 kts | 197° |
| 2026-04-19 22:26 | 35.04994 | -80.36280 | 43127 ft | 437 kts | 197° |
| 2026-04-19 22:27 | 34.98965 | -80.37414 | 43126 ft | 437 kts | 197° |
| 2026-04-19 22:27 | 34.92977 | -80.38541 | 43121 ft | 433 kts | 197° |
| 2026-04-19 22:28 | 34.87029 | -80.39662 | 43124 ft | 433 kts | 197° |
| 2026-04-19 22:28 | 34.81052 | -80.40786 | 43129 ft | 438 kts | 197° |
| 2026-04-19 22:29 | 34.75004 | -80.41917 | 43130 ft | 439 kts | 197° |
| 2026-04-19 22:29 | 34.69015 | -80.43036 | 43122 ft | 435 kts | 197° |
| 2026-04-19 22:30 | 34.63025 | -80.44158 | 43122 ft | 434 kts | 197° |
| 2026-04-19 22:30 | 34.57038 | -80.45277 | 43124 ft | 437 kts | 197° |
| 2026-04-19 22:31 | 34.51005 | -80.46401 | 43121 ft | 440 kts | 197° |
| 2026-04-19 22:31 | 34.44955 | -80.47525 | 43131 ft | 439 kts | 197° |
| 2026-04-19 22:32 | 34.38982 | -80.48635 | 43133 ft | 435 kts | 197° |
| 2026-04-19 22:32 | 34.33011 | -80.49743 | 43142 ft | 435 kts | 197° |
| 2026-04-19 22:33 | 34.26983 | -80.50865 | 43144 ft | 441 kts | 197° |
| 2026-04-19 22:33 | 34.21062 | -80.52526 | 43149 ft | 435 kts | 202° |
| 2026-04-19 22:34 | 34.15206 | -80.54254 | 43140 ft | 432 kts | 202° |
| 2026-04-19 22:34 | 34.09360 | -80.56023 | 43107 ft | 434 kts | 202° |
| 2026-04-19 22:35 | 34.03472 | -80.57776 | 43106 ft | 438 kts | 202° |
| 2026-04-19 22:35 | 33.97548 | -80.59547 | 43105 ft | 438 kts | 202° |
| 2026-04-19 22:36 | 33.91653 | -80.61303 | 43102 ft | 435 kts | 202° |
| 2026-04-19 22:36 | 33.85799 | -80.63047 | 43066 ft | 433 kts | 202° |
| 2026-04-19 22:37 | 33.79925 | -80.64798 | 43107 ft | 438 kts | 202° |
| 2026-04-19 22:37 | 33.73981 | -80.66559 | 43114 ft | 439 kts | 202° |
| 2026-04-19 22:38 | 33.68071 | -80.68310 | 43108 ft | 435 kts | 202° |
| 2026-04-19 22:38 | 33.62209 | -80.70048 | 43112 ft | 434 kts | 202° |
| 2026-04-19 22:39 | 33.56331 | -80.71787 | 43128 ft | 437 kts | 203° |
| 2026-04-19 22:39 | 33.50401 | -80.73539 | 43134 ft | 440 kts | 203° |
| 2026-04-19 22:40 | 33.44507 | -80.75269 | 43130 ft | 438 kts | 203° |
| 2026-04-19 22:40 | 33.38612 | -80.77003 | 43125 ft | 435 kts | 203° |
| 2026-04-19 22:41 | 33.32742 | -80.78728 | 43121 ft | 436 kts | 203° |
| 2026-04-19 22:41 | 33.26815 | -80.80466 | 43125 ft | 441 kts | 203° |
| 2026-04-19 22:42 | 33.20858 | -80.82205 | 43115 ft | 440 kts | 203° |
| 2026-04-19 22:42 | 33.14924 | -80.83941 | 43101 ft | 438 kts | 203° |
| 2026-04-19 22:43 | 33.09013 | -80.85665 | 43101 ft | 436 kts | 203° |
| 2026-04-19 22:43 | 33.03124 | -80.87382 | 43108 ft | 436 kts | 203° |
| 2026-04-19 22:44 | 32.97211 | -80.89106 | 43113 ft | 439 kts | 203° |
| 2026-04-19 22:44 | 32.91254 | -80.90836 | 43110 ft | 442 kts | 203° |
| 2026-04-19 22:45 | 32.85293 | -80.92565 | 43114 ft | 443 kts | 203° |
| 2026-04-19 22:45 | 32.79306 | -80.94299 | 43100 ft | 442 kts | 203° |
| 2026-04-19 22:46 | 32.73340 | -80.96027 | 43092 ft | 441 kts | 203° |
| 2026-04-19 22:46 | 32.67390 | -80.97746 | 43085 ft | 439 kts | 203° |
| 2026-04-19 22:47 | 32.61455 | -80.99459 | 43085 ft | 439 kts | 203° |
| 2026-04-19 22:47 | 32.55532 | -81.01163 | 43066 ft | 437 kts | 203° |
| 2026-04-19 22:48 | 32.49370 | -81.01983 | 43085 ft | 456 kts | 191° |
| 2026-04-19 22:48 | 32.43053 | -81.02078 | 43096 ft | 459 kts | 192° |
| 2026-04-19 22:49 | 32.36659 | -81.02203 | 43088 ft | 459 kts | 191° |
| 2026-04-19 22:49 | 32.30297 | -81.02305 | 43080 ft | 455 kts | 192° |
| 2026-04-19 22:50 | 32.23961 | -81.02428 | 43081 ft | 458 kts | 192° |
| 2026-04-19 22:50 | 32.17548 | -81.02537 | 43077 ft | 462 kts | 192° |
| 2026-04-19 22:51 | 32.11141 | -81.02646 | 43044 ft | 459 kts | 192° |
| 2026-04-19 22:51 | 32.01619 | -81.02816 | 43028 ft | 455 kts | 192° |
| 2026-04-19 22:52 | 31.95249 | -81.02964 | 43052 ft | 460 kts | 193° |
| 2026-04-19 22:52 | 31.88807 | -81.03161 | 43053 ft | 464 kts | 192° |
| 2026-04-19 22:53 | 31.82378 | -81.03317 | 43047 ft | 460 kts | 192° |
| 2026-04-19 22:53 | 31.76006 | -81.03503 | 43043 ft | 457 kts | 192° |
| 2026-04-19 22:54 | 31.70721 | -81.03643 | 43052 ft | 457 kts | 192° |
| 2026-04-19 22:54 | 31.64351 | -81.03819 | 43055 ft | 459 kts | 193° |
| 2026-04-19 22:55 | 31.57956 | -81.04010 | 43056 ft | 458 kts | 194° |
| 2026-04-19 22:55 | 31.50553 | -81.04500 | 43062 ft | 459 kts | 194° |
| 2026-04-19 22:56 | 31.45207 | -81.04834 | 43065 ft | 458 kts | 194° |
| 2026-04-19 22:56 | 31.38852 | -81.05247 | 43061 ft | 456 kts | 194° |
| 2026-04-19 22:57 | 31.32525 | -81.05653 | 43067 ft | 455 kts | 194° |
| 2026-04-19 22:57 | 31.26219 | -81.06057 | 43078 ft | 453 kts | 194° |
| 2026-04-19 22:58 | 31.19908 | -81.06239 | 43053 ft | 458 kts | 192° |
| 2026-04-19 22:58 | 31.13497 | -81.06374 | 43080 ft | 463 kts | 192° |
| 2026-04-19 22:59 | 31.07045 | -81.06504 | 43075 ft | 463 kts | 192° |
| 2026-04-19 22:59 | 31.00621 | -81.06635 | 43070 ft | 459 kts | 192° |
| 2026-04-19 23:00 | 30.94369 | -81.06748 | 43066 ft | 426 kts | 193° |
| 2026-04-19 23:00 | 30.91493 | -81.06792 | 43067 ft | 401 kts | 194° |
| 2026-04-19 23:00 | 30.88812 | -81.06854 | 43065 ft | 381 kts | 194° |
| 2026-04-19 23:01 | 30.86225 | -81.06921 | 43055 ft | 364 kts | 195° |
| 2026-04-19 23:01 | 30.83750 | -81.06978 | 43051 ft | 349 kts | 196° |
| 2026-04-19 23:01 | 30.81373 | -81.07026 | 43051 ft | 335 kts | 197° |
| 2026-04-19 23:01 | 30.79085 | -81.07073 | 43053 ft | 323 kts | 198° |
| 2026-04-19 23:02 | 30.76875 | -81.07121 | 43060 ft | 312 kts | 198° |
| 2026-04-19 23:02 | 30.74738 | -81.07166 | 43052 ft | 302 kts | 199° |
| 2026-04-19 23:02 | 30.72670 | -81.07208 | 43053 ft | 293 kts | 199° |
| 2026-04-19 23:02 | 30.70660 | -81.07249 | 43053 ft | 284 kts | 200° |
| 2026-04-19 23:03 | 30.68710 | -81.07287 | 43053 ft | 276 kts | 200° |
| 2026-04-19 23:03 | 30.66815 | -81.07324 | 43052 ft | 269 kts | 201° |
| 2026-04-19 23:03 | 30.64971 | -81.07361 | 43023 ft | 261 kts | 201° |
| 2026-04-19 23:03 | 30.63187 | -81.07393 | 43057 ft | 252 kts | 201° |
| 2026-04-19 23:04 | 30.61473 | -81.07470 | 43055 ft | 240 kts | 204° |
| 2026-04-19 23:04 | 30.59826 | -81.07577 | 43014 ft | 234 kts | 205° |
| 2026-04-19 23:04 | 30.58207 | -81.07680 | 42818 ft | 235 kts | 206° |
| 2026-04-19 23:04 | 30.56535 | -81.07796 | 42596 ft | 245 kts | 203° |
| 2026-04-19 23:05 | 30.54850 | -81.07873 | 42865 ft | 236 kts | 204° |
| 2026-04-19 23:05 | 30.53244 | -81.07954 | 43046 ft | 229 kts | 206° |
| 2026-04-19 23:05 | 30.51629 | -81.08082 | 42828 ft | 238 kts | 205° |
| 2026-04-19 23:05 | 30.49946 | -81.08197 | 42775 ft | 244 kts | 204° |
| 2026-04-19 23:06 | 30.48256 | -81.08254 | 42949 ft | 243 kts | 204° |
| 2026-04-19 23:06 | 30.46537 | -81.08379 | 42719 ft | 253 kts | 205° |
| 2026-04-19 23:06 | 30.44740 | -81.08528 | 42624 ft | 265 kts | 202° |
| 2026-04-19 23:06 | 30.42858 | -81.08631 | 42551 ft | 276 kts | 201° |
| 2026-04-19 23:07 | 30.40906 | -81.08736 | 42484 ft | 285 kts | 201° |
| 2026-04-19 23:07 | 30.38890 | -81.08861 | 42412 ft | 295 kts | 201° |
| 2026-04-19 23:07 | 30.36799 | -81.08992 | 42343 ft | 306 kts | 200° |
| 2026-04-19 23:07 | 30.34650 | -81.09116 | 42396 ft | 313 kts | 200° |
| 2026-04-19 23:08 | 30.30243 | -81.09379 | 42478 ft | 326 kts | 199° |
| 2026-04-19 23:08 | 30.25614 | -81.09656 | 42558 ft | 340 kts | 198° |
| 2026-04-19 23:09 | 30.20799 | -81.09942 | 42637 ft | 353 kts | 198° |
| 2026-04-19 23:09 | 30.15807 | -81.10239 | 42716 ft | 365 kts | 197° |
| 2026-04-19 23:10 | 30.10645 | -81.10544 | 42798 ft | 377 kts | 196° |
| 2026-04-19 23:10 | 30.05318 | -81.10862 | 42829 ft | 389 kts | 195° |
| 2026-04-19 23:11 | 29.99841 | -81.11189 | 42903 ft | 399 kts | 195° |
| 2026-04-19 23:11 | 29.94218 | -81.11525 | 42973 ft | 410 kts | 195° |
| 2026-04-19 23:12 | 29.88461 | -81.11867 | 43039 ft | 419 kts | 195° |
| 2026-04-19 23:12 | 29.82578 | -81.12218 | 43065 ft | 428 kts | 194° |
| 2026-04-19 23:13 | 29.76521 | -81.12283 | 43067 ft | 440 kts | 191° |
| 2026-04-19 23:13 | 29.70342 | -81.12325 | 43059 ft | 448 kts | 191° |
| 2026-04-19 23:14 | 29.64050 | -81.12354 | 43049 ft | 456 kts | 191° |
| 2026-04-19 23:14 | 29.57605 | -81.11928 | 43028 ft | 477 kts | 181° |
| 2026-04-19 23:15 | 29.54329 | -81.11052 | 43029 ft | 489 kts | 174° |
| 2026-04-19 23:15 | 29.51099 | -81.09755 | 43013 ft | 492 kts | 170° |
| 2026-04-19 23:15 | 29.44678 | -81.07086 | 43022 ft | 490 kts | 171° |
| 2026-04-19 23:16 | 29.38250 | -81.04435 | 43010 ft | 491 kts | 170° |
| 2026-04-19 23:16 | 29.31865 | -81.01789 | 43007 ft | 491 kts | 171° |
| 2026-04-19 23:17 | 29.25433 | -80.99140 | 43018 ft | 491 kts | 170° |
| 2026-04-19 23:17 | 29.19006 | -80.96487 | 43023 ft | 491 kts | 170° |
| 2026-04-19 23:18 | 29.12562 | -80.93838 | 43014 ft | 493 kts | 170° |
| 2026-04-19 23:18 | 29.06106 | -80.91182 | 43014 ft | 494 kts | 170° |
| 2026-04-19 23:19 | 28.99628 | -80.88525 | 43017 ft | 495 kts | 170° |
| 2026-04-19 23:19 | 28.93134 | -80.85861 | 42982 ft | 495 kts | 170° |
| 2026-04-19 23:20 | 28.86663 | -80.83216 | 43016 ft | 494 kts | 170° |
| 2026-04-19 23:20 | 28.80194 | -80.80574 | 43013 ft | 494 kts | 170° |
| 2026-04-19 23:21 | 28.73722 | -80.77940 | 43011 ft | 494 kts | 170° |
| 2026-04-19 23:21 | 28.67256 | -80.75298 | 43014 ft | 494 kts | 170° |
| 2026-04-19 23:22 | 28.60784 | -80.72664 | 43014 ft | 493 kts | 170° |
| 2026-04-19 23:22 | 28.54315 | -80.70040 | 43009 ft | 494 kts | 170° |
| 2026-04-19 23:23 | 28.47882 | -80.67425 | 43036 ft | 494 kts | 170° |
| 2026-04-19 23:23 | 28.41401 | -80.64804 | 43034 ft | 495 kts | 170° |
| 2026-04-19 23:24 | 28.34903 | -80.62171 | 43003 ft | 497 kts | 170° |
| 2026-04-19 23:24 | 28.28402 | -80.59544 | 43007 ft | 495 kts | 170° |
| 2026-04-19 23:25 | 28.21918 | -80.56926 | 43002 ft | 494 kts | 170° |
| 2026-04-19 23:25 | 28.15445 | -80.54318 | 43002 ft | 493 kts | 170° |
| 2026-04-19 23:26 | 28.09001 | -80.51721 | 43031 ft | 491 kts | 169° |
| 2026-04-19 23:26 | 28.02575 | -80.49141 | 43017 ft | 489 kts | 169° |
| 2026-04-19 23:27 | 27.96136 | -80.46557 | 43036 ft | 494 kts | 169° |
| 2026-04-19 23:27 | 27.89631 | -80.43946 | 43044 ft | 497 kts | 169° |
| 2026-04-19 23:28 | 27.83135 | -80.41336 | 43039 ft | 493 kts | 169° |
| 2026-04-19 23:28 | 27.79931 | -80.40051 | 42303 ft | 487 kts | 170° |
| 2026-04-19 23:28 | 27.76700 | -80.38767 | 40852 ft | 496 kts | 170° |
| 2026-04-19 23:29 | 27.73425 | -80.37462 | 39562 ft | 502 kts | 170° |
| 2026-04-19 23:29 | 27.70293 | -80.36178 | 37306 ft | 450 kts | 170° |
| 2026-04-19 23:29 | 27.67457 | -80.35013 | 34347 ft | 415 kts | 170° |
| 2026-04-19 23:29 | 27.64765 | -80.33777 | 31558 ft | 441 kts | 163° |
| 2026-04-19 23:30 | 27.61876 | -80.32286 | 29590 ft | 468 kts | 162° |
| 2026-04-19 23:30 | 27.59112 | -80.30810 | 27791 ft | 405 kts | 162° |
| 2026-04-19 23:30 | 27.56626 | -80.29468 | 25254 ft | 398 kts | 162° |
| 2026-04-19 23:30 | 27.54108 | -80.28159 | 22844 ft | 398 kts | 161° |
| 2026-04-19 23:31 | 27.51575 | -80.26846 | 20297 ft | 391 kts | 160° |
| 2026-04-19 23:31 | 27.49179 | -80.25576 | 18024 ft | 381 kts | 159° |
| 2026-04-19 23:31 | 27.46821 | -80.24319 | 15701 ft | 368 kts | 158° |
| 2026-04-19 23:31 | 27.44465 | -80.23080 | 14385 ft | 375 kts | 158° |
| 2026-04-19 23:32 | 27.42153 | -80.21869 | 13811 ft | 361 kts | 158° |
| 2026-04-19 23:32 | 27.39944 | -80.20704 | 13479 ft | 342 kts | 158° |
| 2026-04-19 23:32 | 27.37839 | -80.19593 | 13106 ft | 327 kts | 158° |
| 2026-04-19 23:32 | 27.35817 | -80.18529 | 12757 ft | 316 kts | 158° |
| 2026-04-19 23:33 | 27.33842 | -80.17493 | 12405 ft | 312 kts | 158° |
| 2026-04-19 23:33 | 27.31871 | -80.16459 | 12071 ft | 313 kts | 158° |
| 2026-04-19 23:33 | 27.29896 | -80.15422 | 11724 ft | 313 kts | 158° |
| 2026-04-19 23:33 | 27.27921 | -80.14385 | 11372 ft | 312 kts | 158° |
| 2026-04-19 23:34 | 27.25967 | -80.13359 | 11022 ft | 309 kts | 158° |
| 2026-04-19 23:34 | 27.24002 | -80.12409 | 10688 ft | 305 kts | 160° |
| 2026-04-19 23:34 | 27.22068 | -80.11468 | 10351 ft | 302 kts | 159° |
| 2026-04-19 23:34 | 27.20155 | -80.10524 | 10021 ft | 299 kts | 159° |
| 2026-04-19 23:35 | 27.18252 | -80.09600 | 9672 ft | 296 kts | 159° |
| 2026-04-19 23:35 | 27.16364 | -80.08690 | 9338 ft | 295 kts | 159° |
| 2026-04-19 23:35 | 27.14480 | -80.07782 | 9011 ft | 295 kts | 160° |
| 2026-04-19 23:35 | 27.12521 | -80.07173 | 8696 ft | 291 kts | 174° |
| 2026-04-19 23:36 | 27.10514 | -80.06861 | 8370 ft | 291 kts | 174° |
| 2026-04-19 23:36 | 27.08512 | -80.06526 | 8047 ft | 290 kts | 174° |
| 2026-04-19 23:36 | 27.06529 | -80.06191 | 7740 ft | 287 kts | 174° |
| 2026-04-19 23:36 | 27.04558 | -80.05865 | 7414 ft | 285 kts | 174° |
| 2026-04-19 23:37 | 27.02600 | -80.05545 | 7101 ft | 284 kts | 174° |
| 2026-04-19 23:37 | 27.00652 | -80.05223 | 6791 ft | 282 kts | 174° |
| 2026-04-19 23:37 | 26.98717 | -80.04904 | 6480 ft | 281 kts | 174° |
| 2026-04-19 23:37 | 26.96791 | -80.04586 | 6160 ft | 279 kts | 174° |
| 2026-04-19 23:38 | 26.94875 | -80.04270 | 5850 ft | 277 kts | 174° |
| 2026-04-19 23:38 | 26.92967 | -80.03956 | 5532 ft | 277 kts | 173° |
| 2026-04-19 23:38 | 26.91083 | -80.03749 | 5246 ft | 275 kts | 183° |
| 2026-04-19 23:38 | 26.89210 | -80.04095 | 5010 ft | 271 kts | 199° |
| 2026-04-19 23:39 | 26.87521 | -80.04947 | 5007 ft | 266 kts | 213° |
| 2026-04-19 23:39 | 26.86022 | -80.06191 | 5004 ft | 270 kts | 220° |
| 2026-04-19 23:39 | 26.84455 | -80.07373 | 4982 ft | 274 kts | 208° |
| 2026-04-19 23:39 | 26.82669 | -80.08098 | 4991 ft | 273 kts | 199° |
| 2026-04-19 23:40 | 26.80853 | -80.08733 | 4991 ft | 273 kts | 199° |
| 2026-04-19 23:40 | 26.79048 | -80.09381 | 4990 ft | 272 kts | 199° |
| 2026-04-19 23:40 | 26.77194 | -80.09802 | 4980 ft | 273 kts | 185° |
| 2026-04-19 23:40 | 26.75295 | -80.09724 | 4983 ft | 273 kts | 178° |
| 2026-04-19 23:41 | 26.73397 | -80.09588 | 4985 ft | 273 kts | 178° |
| 2026-04-19 23:41 | 26.71497 | -80.09465 | 4991 ft | 274 kts | 178° |
| 2026-04-19 23:41 | 26.69591 | -80.09341 | 4987 ft | 275 kts | 178° |
| 2026-04-19 23:41 | 26.67685 | -80.09214 | 4986 ft | 274 kts | 178° |
| 2026-04-19 23:42 | 26.65788 | -80.09087 | 4984 ft | 274 kts | 178° |
| 2026-04-19 23:42 | 26.63884 | -80.08962 | 4982 ft | 275 kts | 178° |
| 2026-04-19 23:42 | 26.61973 | -80.08834 | 4990 ft | 275 kts | 178° |
| 2026-04-19 23:42 | 26.60099 | -80.08420 | 4989 ft | 275 kts | 163° |
| 2026-04-19 23:43 | 26.58286 | -80.07740 | 5003 ft | 275 kts | 163° |
| 2026-04-19 23:43 | 26.56464 | -80.07092 | 5004 ft | 275 kts | 164° |
| 2026-04-19 23:43 | 26.54637 | -80.06445 | 5006 ft | 276 kts | 164° |
| 2026-04-19 23:43 | 26.53426 | -80.06011 | 5006 ft | 276 kts | 163° |
| 2026-04-19 23:44 | 26.51600 | -80.05352 | 5003 ft | 276 kts | 164° |
| 2026-04-19 23:44 | 26.49772 | -80.04696 | 4998 ft | 276 kts | 164° |
| 2026-04-19 23:44 | 26.47938 | -80.04039 | 4989 ft | 277 kts | 164° |
| 2026-04-19 23:44 | 26.46103 | -80.03381 | 4989 ft | 277 kts | 164° |
| 2026-04-19 23:45 | 26.44273 | -80.02727 | 4986 ft | 275 kts | 164° |
| 2026-04-19 23:45 | 26.42403 | -80.02353 | 4992 ft | 273 kts | 180° |
| 2026-04-19 23:45 | 26.40513 | -80.02503 | 5000 ft | 273 kts | 188° |
| 2026-04-19 23:45 | 26.38625 | -80.02735 | 4998 ft | 273 kts | 188° |
| 2026-04-19 23:46 | 26.36739 | -80.02954 | 4999 ft | 272 kts | 188° |
| 2026-04-19 23:46 | 26.34854 | -80.03177 | 4994 ft | 272 kts | 188° |
| 2026-04-19 23:46 | 26.32945 | -80.03407 | 4680 ft | 279 kts | 188° |
| 2026-04-19 23:46 | 26.31023 | -80.03638 | 4190 ft | 275 kts | 188° |
| 2026-04-19 23:47 | 26.29221 | -80.04145 | 3999 ft | 258 kts | 203° |
| 2026-04-19 23:47 | 26.27563 | -80.04900 | 3996 ft | 261 kts | 203° |
| 2026-04-19 23:47 | 26.25881 | -80.05642 | 3999 ft | 267 kts | 204° |
| 2026-04-19 23:47 | 26.24130 | -80.06422 | 4004 ft | 267 kts | 204° |
| 2026-04-19 23:48 | 26.22567 | -80.07461 | 3999 ft | 266 kts | 221° |
| 2026-04-19 23:48 | 26.21400 | -80.08864 | 3692 ft | 216 kts | 234° |
| 2026-04-19 23:48 | 26.20718 | -80.10294 | 2150 ft | 208 kts | 249° |
| 2026-04-19 23:48 | 26.20379 | -80.11754 | 1048 ft | 179 kts | 262° |
| 2026-04-19 23:49 | 26.20272 | -80.13055 | 537 ft | 161 kts | 264° |
| 2026-04-19 23:49 | 26.20160 | -80.14184 | 444 ft | 130 kts | 262° |
| 2026-04-19 23:49 | 26.20044 | -80.15186 | 240 ft | 131 kts | 260° |
| 2026-04-19 23:49 | 26.19949 | -80.16199 | 65 ft | 129 kts | 262° |
| 2026-04-19 23:50 | 26.19859 | -80.17037 | 30 ft | 82 kts | 263° |
| 2026-04-19 23:50 | 26.19824 | -80.17408 | 23 ft | 32 kts | 264° |
| 2026-04-19 23:50 | 26.19805 | -80.17533 | 22 ft | 7 kts | 221° |
| 2026-04-19 23:50 | 26.19764 | -80.17495 | 23 ft | 10 kts | 123° |
| 2026-04-19 23:51 | 26.19729 | -80.17421 | 24 ft | 11 kts | 86° |
| 2026-04-19 23:51 | 26.19737 | -80.17331 | 25 ft | 13 kts | 95° |
| 2026-04-19 23:51 | 26.19679 | -80.17237 | 25 ft | 17 kts | 129° |
| 2026-04-19 23:51 | 26.19592 | -80.17120 | 24 ft | 22 kts | 129° |
| 2026-04-19 23:52 | 26.19504 | -80.16997 | 22 ft | 11 kts | 128° |
| 2026-04-19 23:52 | 26.19464 | -80.17007 | 22 ft | 5 kts | 266° |
| 2026-04-19 23:52 | 26.19477 | -80.17025 | 22 ft | 0 kts | 291° |
| 2026-04-19 23:52 | 26.19476 | -80.17027 | 22 ft | 0 kts | 269° |
| 2026-04-19 23:53 | 26.19473 | -80.17030 | 22 ft | 2 kts | 224° |
| 2026-04-19 23:53 | 26.19472 | -80.17031 | 22 ft | 0 kts | 220° |